createdAt,value
2019-03-20T00:00:50.063Z,68.13
2019-03-20T00:03:17.125Z,68.08
2019-03-20T00:05:44.186Z,68.12
2019-03-20T00:08:11.263Z,68.06
2019-03-20T00:10:38.318Z,68.03
2019-03-20T00:13:05.409Z,68.00
2019-03-20T00:15:32.463Z,67.96
2019-03-20T00:17:59.540Z,68.02
2019-03-20T00:20:26.601Z,67.98
2019-03-20T00:22:53.664Z,67.95
2019-03-20T00:25:21.604Z,68.01
2019-03-20T00:27:50.526Z,68.08
2019-03-20T00:30:17.656Z,68.06
2019-03-20T00:32:45.273Z,67.99
2019-03-20T00:35:12.337Z,68.05
2019-03-20T00:37:39.399Z,68.00
2019-03-20T00:40:07.491Z,68.02
2019-03-20T00:42:35.593Z,67.99
2019-03-20T00:45:02.870Z,68.02
2019-03-20T00:47:29.951Z,68.08
2019-03-20T00:49:58.106Z,68.21
2019-03-20T00:52:25.298Z,68.29
2019-03-20T00:54:52.383Z,68.29
2019-03-20T00:57:19.445Z,68.20
2019-03-20T00:59:46.512Z,68.21
2019-03-20T01:02:13.604Z,68.18
2019-03-20T01:04:42.027Z,68.21
2019-03-20T01:07:10.296Z,68.29
2019-03-20T01:09:37.363Z,68.38
2019-03-20T01:12:04.469Z,68.48
2019-03-20T01:14:31.539Z,68.36
2019-03-20T01:16:58.610Z,68.37
2019-03-20T01:19:25.673Z,68.34
2019-03-20T01:21:52.723Z,68.38
2019-03-20T01:24:19.787Z,68.37
2019-03-20T01:26:46.864Z,68.46
2019-03-20T01:29:13.929Z,68.54
2019-03-20T01:31:40.995Z,68.57
2019-03-20T01:34:08.074Z,68.64
2019-03-20T01:36:35.197Z,68.68
2019-03-20T01:39:03.938Z,68.73
2019-03-20T01:41:38.076Z,68.89
2019-03-20T01:44:00.012Z,68.95
2019-03-20T01:46:27.082Z,68.98
2019-03-20T01:48:54.183Z,68.99
2019-03-20T01:51:21.392Z,69.10
2019-03-20T01:53:48.590Z,69.17
2019-03-20T01:56:15.672Z,69.08
2019-03-20T01:58:42.729Z,69.00
2019-03-20T02:01:09.987Z,68.93
2019-03-20T02:03:37.062Z,68.88
2019-03-20T02:06:04.140Z,68.69
2019-03-20T02:08:33.343Z,68.62
2019-03-20T02:11:00.438Z,68.56
2019-03-20T02:13:27.504Z,68.47
2019-03-20T02:15:54.581Z,68.38
2019-03-20T02:18:21.704Z,68.31
2019-03-20T02:20:49.072Z,68.25
2019-03-20T02:23:16.144Z,68.19
2019-03-20T02:25:43.205Z,68.10
2019-03-20T02:28:10.265Z,68.02
2019-03-20T02:30:37.324Z,67.94
2019-03-20T02:33:04.638Z,67.88
2019-03-20T02:35:31.700Z,67.82
2019-03-20T02:37:58.767Z,67.81
2019-03-20T02:40:25.879Z,67.72
2019-03-20T02:42:52.895Z,67.73
2019-03-20T02:45:19.969Z,67.67
2019-03-20T02:47:47.034Z,67.63
2019-03-20T02:50:15.806Z,67.61
2019-03-20T02:52:42.875Z,67.57
2019-03-20T02:55:09.949Z,67.53
2019-03-20T02:57:36.998Z,67.50
2019-03-20T03:00:05.922Z,67.50
2019-03-20T03:02:33.084Z,67.49
2019-03-20T03:05:00.417Z,67.51
2019-03-20T03:07:27.525Z,67.48
2019-03-20T03:09:54.661Z,67.46
2019-03-20T03:12:21.720Z,67.45
2019-03-20T03:14:48.818Z,67.43
2019-03-20T03:17:15.867Z,67.46
2019-03-20T03:19:42.983Z,67.34
2019-03-20T03:22:10.087Z,67.28
2019-03-20T03:24:37.145Z,67.31
2019-03-20T03:27:04.225Z,67.21
2019-03-20T03:29:31.291Z,66.98
2019-03-20T03:31:58.353Z,66.83
2019-03-20T03:34:25.425Z,66.81
2019-03-20T03:36:52.493Z,66.84
2019-03-20T03:39:19.552Z,66.78
2019-03-20T03:41:46.609Z,66.70
2019-03-20T03:44:13.695Z,66.65
2019-03-20T03:46:40.730Z,66.65
2019-03-20T03:49:07.785Z,66.54
2019-03-20T03:51:34.847Z,66.49
2019-03-20T03:54:01.919Z,66.54
2019-03-20T03:56:28.992Z,66.66
2019-03-20T03:58:56.073Z,66.67
2019-03-20T04:01:23.163Z,66.70
2019-03-20T04:03:50.214Z,66.80
2019-03-20T04:06:17.381Z,66.90
2019-03-20T04:08:44.442Z,66.95
2019-03-20T04:11:11.501Z,67.00
2019-03-20T04:13:38.567Z,67.13
2019-03-20T04:16:05.646Z,67.20
2019-03-20T04:18:32.722Z,67.35
2019-03-20T04:20:59.778Z,67.66
2019-03-20T04:23:26.857Z,67.67
2019-03-20T04:25:53.932Z,67.80
2019-03-20T04:28:21.003Z,67.78
2019-03-20T04:30:48.204Z,67.65
2019-03-20T04:33:15.282Z,67.69
2019-03-20T04:35:42.356Z,67.68
2019-03-20T04:38:09.422Z,67.83
2019-03-20T04:40:36.499Z,68.13
2019-03-20T04:43:03.682Z,68.13
2019-03-20T04:45:31.223Z,68.27
2019-03-20T04:47:58.296Z,68.28
2019-03-20T04:50:25.362Z,68.37
2019-03-20T04:52:52.415Z,68.61
2019-03-20T04:55:19.477Z,68.51
2019-03-20T04:57:46.628Z,68.48
2019-03-20T05:00:14.129Z,68.42
2019-03-20T05:02:41.184Z,68.46
2019-03-20T05:05:08.279Z,68.42
2019-03-20T05:07:35.353Z,68.46
2019-03-20T05:10:02.568Z,68.51
2019-03-20T05:12:29.739Z,68.57
2019-03-20T05:14:56.818Z,68.82
2019-03-20T05:17:23.889Z,69.18
2019-03-20T05:19:50.948Z,69.31
2019-03-20T05:22:18.059Z,69.10
2019-03-20T05:24:45.148Z,69.45
2019-03-20T05:27:12.218Z,69.21
2019-03-20T05:29:39.455Z,69.24
2019-03-20T05:32:06.519Z,69.39
2019-03-20T05:34:33.582Z,69.43
2019-03-20T05:37:09.837Z,69.54
2019-03-20T05:39:29.641Z,69.43
2019-03-20T05:41:57.031Z,69.42
2019-03-20T05:44:24.116Z,69.67
2019-03-20T05:46:51.185Z,69.81
2019-03-20T05:49:18.286Z,69.75
2019-03-20T05:51:45.417Z,69.76
2019-03-20T05:54:12.471Z,70.16
2019-03-20T05:56:39.559Z,69.63
2019-03-20T05:59:06.701Z,69.85
2019-03-20T06:01:33.859Z,69.66
2019-03-20T06:04:00.947Z,69.98
2019-03-20T06:06:30.144Z,69.97
2019-03-20T06:08:57.199Z,69.95
2019-03-20T06:11:24.270Z,69.89
2019-03-20T06:13:51.404Z,69.87
2019-03-20T06:16:18.493Z,70.04
2019-03-20T06:18:45.548Z,69.80
2019-03-20T06:21:12.629Z,70.08
2019-03-20T06:23:39.711Z,69.87
2019-03-20T06:26:06.793Z,69.88
2019-03-20T06:28:33.878Z,70.06
2019-03-20T06:31:00.971Z,70.13
2019-03-20T06:33:28.032Z,70.34
2019-03-20T06:35:55.096Z,70.18
2019-03-20T06:38:22.146Z,70.08
2019-03-20T06:40:49.212Z,70.41
2019-03-20T06:43:16.278Z,70.33
2019-03-20T06:45:43.334Z,70.62
2019-03-20T06:48:10.400Z,71.22
2019-03-20T06:50:37.465Z,71.28
2019-03-20T06:53:04.526Z,71.89
2019-03-20T06:55:31.615Z,71.72
2019-03-20T06:57:58.678Z,72.02
2019-03-20T07:00:51.521Z,72.53
2019-03-20T07:03:28.844Z,72.37
2019-03-20T07:06:16.106Z,71.98
2019-03-20T07:08:47.265Z,73.16
2019-03-20T07:11:17.073Z,73.56
2019-03-20T07:13:44.124Z,73.10
2019-03-20T07:16:11.206Z,72.49
2019-03-20T07:18:38.284Z,73.03
2019-03-20T07:21:05.353Z,74.08
2019-03-20T07:23:32.426Z,74.23
2019-03-20T07:25:59.490Z,74.24
2019-03-20T07:28:26.662Z,73.52
2019-03-20T07:30:53.730Z,74.31
2019-03-20T07:33:20.790Z,74.74
2019-03-20T07:35:47.853Z,75.12
2019-03-20T07:38:15.071Z,74.56
2019-03-20T07:40:43.024Z,74.68
2019-03-20T07:43:10.138Z,74.22
2019-03-20T07:45:37.201Z,73.87
2019-03-20T07:48:04.420Z,75.21
2019-03-20T07:50:31.523Z,74.95
2019-03-20T07:52:58.592Z,75.59
2019-03-20T07:55:25.660Z,75.73
2019-03-20T07:57:52.740Z,76.14
2019-03-20T08:00:19.807Z,75.26
2019-03-20T08:02:46.868Z,75.20
2019-03-20T08:05:13.966Z,75.11
2019-03-20T08:07:41.026Z,75.22
2019-03-20T08:10:10.188Z,75.76
2019-03-20T08:12:37.231Z,75.13
2019-03-20T08:15:06.572Z,75.07
2019-03-20T08:17:33.586Z,75.02
2019-03-20T08:20:00.679Z,75.45
2019-03-20T08:22:27.719Z,75.09
2019-03-20T08:24:55.881Z,74.81
2019-03-20T08:27:23.091Z,74.85
2019-03-20T08:29:50.154Z,74.40
2019-03-20T08:32:17.237Z,75.43
2019-03-20T08:34:44.301Z,74.71
2019-03-20T08:37:11.367Z,74.51
2019-03-20T08:39:38.432Z,75.12
2019-03-20T08:42:05.493Z,74.59
2019-03-20T08:44:32.579Z,74.73
2019-03-20T08:46:59.687Z,74.55
2019-03-20T08:49:26.746Z,74.85
2019-03-20T08:51:53.805Z,75.12
2019-03-20T08:54:20.859Z,75.02
2019-03-20T08:56:47.919Z,74.89
2019-03-20T08:59:15.019Z,74.72
2019-03-20T09:01:42.159Z,74.95
2019-03-20T09:04:09.222Z,74.43
2019-03-20T09:06:36.347Z,74.45
2019-03-20T09:09:06.711Z,74.45
2019-03-20T09:11:33.776Z,74.63
2019-03-20T09:14:00.877Z,74.45
2019-03-20T09:16:27.934Z,74.25
2019-03-20T09:18:55.007Z,74.37
2019-03-20T09:21:22.077Z,74.48
2019-03-20T09:23:49.187Z,74.38
2019-03-20T09:26:16.264Z,74.53
2019-03-20T09:28:43.326Z,74.52
2019-03-20T09:31:10.387Z,74.76
2019-03-20T09:33:37.449Z,74.80
2019-03-20T09:36:04.524Z,75.13
2019-03-20T09:38:42.691Z,75.47
2019-03-20T09:41:00.579Z,75.74
2019-03-20T09:43:27.651Z,75.88
2019-03-20T09:45:56.879Z,76.25
2019-03-20T09:48:23.724Z,76.28
2019-03-20T09:50:50.809Z,76.50
2019-03-20T09:53:17.871Z,76.56
2019-03-20T09:55:44.945Z,76.67
2019-03-20T09:58:12.158Z,76.73
2019-03-20T10:00:39.192Z,77.03
2019-03-20T10:03:06.298Z,77.53
2019-03-20T10:05:33.354Z,76.98
2019-03-20T10:08:00.413Z,76.98
2019-03-20T10:10:27.505Z,77.07
2019-03-20T10:12:54.607Z,77.09
2019-03-20T10:15:21.743Z,77.31
2019-03-20T10:17:48.820Z,77.54
2019-03-20T10:20:17.058Z,77.38
2019-03-20T10:22:44.138Z,77.44
2019-03-20T10:25:11.540Z,77.74
2019-03-20T10:27:38.700Z,77.93
2019-03-20T10:30:08.734Z,78.10
2019-03-20T10:32:35.830Z,78.28
2019-03-20T10:35:03.338Z,78.51
2019-03-20T10:37:30.407Z,78.48
2019-03-20T10:39:57.508Z,78.54
2019-03-20T10:42:24.609Z,78.64
2019-03-20T10:44:51.677Z,78.66
2019-03-20T10:47:18.767Z,78.65
2019-03-20T10:49:45.864Z,78.75
2019-03-20T10:52:12.980Z,78.73
2019-03-20T10:54:40.055Z,78.73
2019-03-20T10:57:07.132Z,78.91
2019-03-20T10:59:34.216Z,78.94
2019-03-20T11:02:01.285Z,78.94
2019-03-20T11:04:28.401Z,78.92
2019-03-20T11:06:55.458Z,79.14
2019-03-20T11:09:22.521Z,79.27
2019-03-20T11:11:49.631Z,79.27
2019-03-20T11:14:16.687Z,79.21
2019-03-20T11:16:43.755Z,79.22
2019-03-20T11:19:10.865Z,79.41
2019-03-20T11:21:37.899Z,79.47
2019-03-20T11:24:05.000Z,79.70
2019-03-20T11:26:32.073Z,79.68
2019-03-20T11:28:59.144Z,79.65
2019-03-20T11:31:26.221Z,79.62
2019-03-20T11:33:53.301Z,79.64
2019-03-20T11:36:20.368Z,79.67
2019-03-20T11:38:47.439Z,79.57
2019-03-20T11:41:14.555Z,79.66
2019-03-20T11:43:41.635Z,79.77
2019-03-20T11:46:08.707Z,79.79
2019-03-20T11:48:35.863Z,79.77
2019-03-20T11:51:02.976Z,79.68
2019-03-20T11:53:30.139Z,79.59
2019-03-20T11:55:57.243Z,79.48
2019-03-20T11:58:24.338Z,79.30
2019-03-20T12:00:51.443Z,79.41
2019-03-20T12:03:18.517Z,79.15
2019-03-20T12:05:45.583Z,78.79
2019-03-20T12:08:12.692Z,78.65
2019-03-20T12:10:39.788Z,78.66
2019-03-20T12:13:06.862Z,78.52
2019-03-20T12:15:33.935Z,78.49
2019-03-20T12:18:01.012Z,78.38
2019-03-20T12:20:28.072Z,78.28
2019-03-20T12:22:55.263Z,78.20
2019-03-20T12:25:24.412Z,78.15
2019-03-20T12:27:51.492Z,78.12
2019-03-20T12:30:20.662Z,77.92
2019-03-20T12:32:47.733Z,77.86
2019-03-20T12:35:14.986Z,77.71
2019-03-20T12:37:42.065Z,77.45
2019-03-20T12:40:13.362Z,77.28
2019-03-20T12:42:40.419Z,77.18
2019-03-20T12:45:09.774Z,77.21
2019-03-20T12:47:36.844Z,77.19
2019-03-20T12:50:04.451Z,77.17
2019-03-20T12:52:31.520Z,76.72
2019-03-20T12:54:58.639Z,76.60
2019-03-20T12:57:25.719Z,76.47
2019-03-20T12:59:52.784Z,76.17
2019-03-20T13:02:19.856Z,75.94
2019-03-20T13:04:46.926Z,75.80
2019-03-20T13:07:14.034Z,75.44
2019-03-20T13:09:41.638Z,75.01
2019-03-20T13:12:08.696Z,74.60
2019-03-20T13:14:35.782Z,74.18
2019-03-20T13:17:02.858Z,74.03
2019-03-20T13:19:29.925Z,73.70
2019-03-20T13:21:56.996Z,73.31
2019-03-20T13:24:24.107Z,73.16
2019-03-20T13:26:51.167Z,72.65
2019-03-20T13:29:18.294Z,72.71
2019-03-20T13:31:45.352Z,72.38
2019-03-20T13:34:12.435Z,72.13
2019-03-20T13:36:42.205Z,71.75
2019-03-20T13:39:12.082Z,71.42
2019-03-20T13:41:39.105Z,70.98
2019-03-20T13:44:06.253Z,71.04
2019-03-20T13:46:33.322Z,70.72
2019-03-20T13:49:00.419Z,70.48
2019-03-20T13:51:27.552Z,70.38
2019-03-20T13:53:54.617Z,68.75
2019-03-20T13:56:21.696Z,68.96
2019-03-20T13:58:48.837Z,67.88
2019-03-20T14:01:15.987Z,68.62
2019-03-20T14:03:43.060Z,68.70
2019-03-20T14:06:10.143Z,67.39
2019-03-20T14:08:37.290Z,67.17
2019-03-20T14:11:04.381Z,66.11
2019-03-20T14:13:31.512Z,65.96
2019-03-20T14:15:58.576Z,66.11
2019-03-20T14:18:25.642Z,66.22
2019-03-20T14:20:52.718Z,65.92
2019-03-20T14:23:19.772Z,65.67
2019-03-20T14:25:46.874Z,65.86
2019-03-20T14:28:13.970Z,65.59
2019-03-20T14:30:41.008Z,65.66
2019-03-20T14:33:08.094Z,65.80
2019-03-20T14:35:35.156Z,65.04
2019-03-20T14:38:02.243Z,65.46
2019-03-20T14:40:35.411Z,65.12
2019-03-20T14:42:58.351Z,64.05
2019-03-20T14:45:25.477Z,63.86
2019-03-20T14:47:52.849Z,64.31
2019-03-20T14:50:21.700Z,64.60
2019-03-20T14:52:48.767Z,64.70
2019-03-20T14:55:15.831Z,64.42
2019-03-20T14:57:44.678Z,64.24
2019-03-20T15:00:14.734Z,64.11
2019-03-20T15:02:41.813Z,63.76
2019-03-20T15:05:08.975Z,64.00
2019-03-20T15:07:36.042Z,63.91
2019-03-20T15:10:03.868Z,63.69
2019-03-20T15:12:30.932Z,63.73
2019-03-20T15:14:58.007Z,63.69
2019-03-20T15:17:25.062Z,63.72
2019-03-20T15:19:52.145Z,63.53
2019-03-20T15:22:19.197Z,63.76
2019-03-20T15:24:46.302Z,63.95
2019-03-20T15:27:13.375Z,64.00
2019-03-20T15:29:40.453Z,64.11
2019-03-20T15:32:07.547Z,64.19
2019-03-20T15:34:34.595Z,64.14
2019-03-20T15:37:01.657Z,64.30
2019-03-20T15:39:28.733Z,64.28
2019-03-20T15:41:55.791Z,64.04
2019-03-20T15:44:22.867Z,64.18
2019-03-20T15:46:49.988Z,63.78
2019-03-20T15:49:17.052Z,63.36
2019-03-20T15:51:44.143Z,63.27
2019-03-20T15:54:11.208Z,63.24
2019-03-20T15:56:38.301Z,63.30
2019-03-20T15:59:05.362Z,62.72
2019-03-20T16:01:32.440Z,62.93
2019-03-20T16:03:59.528Z,63.20
2019-03-20T16:06:26.596Z,63.55
2019-03-20T16:08:56.712Z,63.64
2019-03-20T16:11:22.598Z,63.58
2019-03-20T16:13:49.706Z,63.74
2019-03-20T16:16:16.764Z,63.66
2019-03-20T16:18:43.877Z,63.72
2019-03-20T16:21:10.955Z,63.68
2019-03-20T16:23:38.101Z,63.55
2019-03-20T16:26:05.159Z,63.55
2019-03-20T16:28:32.211Z,63.58
2019-03-20T16:30:59.267Z,63.68
2019-03-20T16:33:26.334Z,63.69
2019-03-20T16:35:53.430Z,63.69
2019-03-20T16:38:20.481Z,63.74
2019-03-20T16:40:47.618Z,63.80
2019-03-20T16:43:14.742Z,63.83
2019-03-20T16:45:41.826Z,63.88
2019-03-20T16:48:08.916Z,63.92
2019-03-20T16:50:35.994Z,63.94
2019-03-20T16:53:03.477Z,64.01
2019-03-20T16:55:30.543Z,64.05
2019-03-20T16:57:57.617Z,64.08
2019-03-20T17:00:26.406Z,63.98
2019-03-20T17:02:53.468Z,63.77
2019-03-20T17:05:20.771Z,63.52
2019-03-20T17:07:48.054Z,63.17
2019-03-20T17:10:17.562Z,62.76
2019-03-20T17:12:44.650Z,62.48
2019-03-20T17:15:15.084Z,62.33
2019-03-20T17:17:42.182Z,62.38
2019-03-20T17:20:09.365Z,62.42
2019-03-20T17:22:41.896Z,62.59
2019-03-20T17:25:05.896Z,62.64
2019-03-20T17:27:32.972Z,62.49
2019-03-20T17:30:00.033Z,62.61
2019-03-20T17:32:27.116Z,62.69
2019-03-20T17:34:54.198Z,62.53
2019-03-20T17:37:21.250Z,62.31
2019-03-20T17:39:49.208Z,62.31
2019-03-20T17:42:16.398Z,62.36
2019-03-20T17:44:43.475Z,62.36
2019-03-20T17:47:10.659Z,62.46
2019-03-20T17:49:37.722Z,62.58
2019-03-20T17:52:04.809Z,62.69
2019-03-20T17:54:31.878Z,62.77
2019-03-20T17:56:58.987Z,62.70
2019-03-20T17:59:26.075Z,62.99
2019-03-20T18:01:53.144Z,63.13
2019-03-20T18:04:20.215Z,63.29
2019-03-20T18:06:47.312Z,63.40
2019-03-20T18:09:17.207Z,63.31
2019-03-20T18:11:47.772Z,63.43
2019-03-20T18:14:13.251Z,63.53
2019-03-20T18:16:40.336Z,63.68
2019-03-20T18:19:07.403Z,63.83
2019-03-20T18:21:34.470Z,63.96
2019-03-20T18:24:01.547Z,64.06
2019-03-20T18:26:28.620Z,64.14
2019-03-20T18:28:55.724Z,64.25
2019-03-20T18:31:22.799Z,64.36
2019-03-20T18:33:49.992Z,64.52
2019-03-20T18:36:17.059Z,64.63
2019-03-20T18:38:44.135Z,64.73
2019-03-20T18:41:11.222Z,64.83
2019-03-20T18:43:38.299Z,64.93
2019-03-20T18:46:05.381Z,65.00
2019-03-20T18:48:32.455Z,65.05
2019-03-20T18:50:59.516Z,65.11
2019-03-20T18:53:26.591Z,65.16
2019-03-20T18:55:53.676Z,65.21
2019-03-20T18:58:20.752Z,65.30
2019-03-20T19:00:47.822Z,65.37
2019-03-20T19:03:14.969Z,65.34
2019-03-20T19:05:51.449Z,65.36
2019-03-20T19:08:18.672Z,65.36
2019-03-20T19:10:45.916Z,65.37
2019-03-20T19:13:12.996Z,65.45
2019-03-20T19:15:40.082Z,65.55
2019-03-20T19:18:07.175Z,65.64
2019-03-20T19:20:34.281Z,65.74
2019-03-20T19:23:01.336Z,65.84
2019-03-20T19:25:28.430Z,65.96
2019-03-20T19:27:55.480Z,66.05
2019-03-20T19:30:22.570Z,66.12
2019-03-20T19:32:49.690Z,66.19
2019-03-20T19:35:16.790Z,66.23
2019-03-20T19:37:43.867Z,66.23
2019-03-20T19:40:11.500Z,66.24
2019-03-20T19:42:38.579Z,66.25
2019-03-20T19:45:06.186Z,66.27
2019-03-20T19:47:33.224Z,66.24
2019-03-20T19:50:00.619Z,66.20
2019-03-20T19:52:28.797Z,66.23
2019-03-20T19:54:55.879Z,66.19
2019-03-20T19:57:22.990Z,65.64
2019-03-20T19:59:50.076Z,65.82
2019-03-20T20:02:17.143Z,65.83
2019-03-20T20:04:44.251Z,65.78
2019-03-20T20:07:11.326Z,65.76
2019-03-20T20:09:38.445Z,65.83
2019-03-20T20:12:05.540Z,65.88
2019-03-20T20:14:32.599Z,65.94
2019-03-20T20:16:59.690Z,66.00
2019-03-20T20:19:26.767Z,66.07
2019-03-20T20:21:53.846Z,66.04
2019-03-20T20:24:20.940Z,66.00
2019-03-20T20:26:48.063Z,65.96
2019-03-20T20:29:15.175Z,65.93
2019-03-20T20:31:42.253Z,65.93
2019-03-20T20:34:09.328Z,66.00
2019-03-20T20:36:36.411Z,66.04
2019-03-20T20:39:06.056Z,66.07
2019-03-20T20:41:33.351Z,66.07
2019-03-20T20:44:00.491Z,66.13
2019-03-20T20:46:27.612Z,66.21
2019-03-20T20:48:54.683Z,66.28
2019-03-20T20:51:21.785Z,66.30
2019-03-20T20:53:48.845Z,66.36
2019-03-20T20:56:16.008Z,66.42
2019-03-20T20:58:43.067Z,66.46
2019-03-20T21:01:10.192Z,66.48
2019-03-20T21:03:37.258Z,66.43
2019-03-20T21:06:04.326Z,66.33
2019-03-20T21:08:31.399Z,66.31
2019-03-20T21:10:58.463Z,66.14
2019-03-20T21:13:25.525Z,66.16
2019-03-20T21:15:56.274Z,66.17
2019-03-20T21:19:20.336Z,66.15
2019-03-20T21:22:41.492Z,66.10
2019-03-20T21:25:09.151Z,65.98
2019-03-20T21:28:28.170Z,66.11
2019-03-20T21:31:19.201Z,66.14
2019-03-20T21:34:34.121Z,66.21
2019-03-20T21:37:30.062Z,66.32
2019-03-20T21:39:57.661Z,66.42
2019-03-20T21:43:17.607Z,66.49
2019-03-20T21:46:32.539Z,66.49
2019-03-20T21:49:00.141Z,66.53
2019-03-20T21:51:27.734Z,66.58
2019-03-20T21:54:33.740Z,66.58
2019-03-20T21:57:12.834Z,66.66
2019-03-20T22:00:14.707Z,66.62
2019-03-20T22:02:42.593Z,66.58
2019-03-20T22:05:34.691Z,66.63
2019-03-20T22:08:02.284Z,66.60
2019-03-20T22:11:06.147Z,66.58
2019-03-20T22:13:44.039Z,66.58
2019-03-20T22:16:42.371Z,66.45
2019-03-20T22:19:45.746Z,66.41
2019-03-20T22:22:41.804Z,66.47
2019-03-20T22:26:02.732Z,66.45
2019-03-20T22:29:23.294Z,66.46
2019-03-20T22:32:50.458Z,66.58
2019-03-20T22:35:38.189Z,66.60
2019-03-20T22:38:13.643Z,66.70
2019-03-20T22:41:30.929Z,66.81
2019-03-20T22:44:02.523Z,66.88
2019-03-20T22:47:06.656Z,66.91
2019-03-20T22:50:17.009Z,67.02
2019-03-20T22:53:26.854Z,67.17
2019-03-20T22:56:37.583Z,67.23
2019-03-20T22:59:05.218Z,67.35
2019-03-20T23:02:12.105Z,67.37
2019-03-20T23:04:49.071Z,67.41
2019-03-20T23:07:16.674Z,67.48
2019-03-20T23:09:44.266Z,67.50
2019-03-20T23:12:13.804Z,67.52
2019-03-20T23:14:41.415Z,67.63
2019-03-20T23:17:09.018Z,67.62
2019-03-20T23:19:37.600Z,67.68
2019-03-20T23:22:05.311Z,67.70
2019-03-20T23:24:32.925Z,67.76
2019-03-20T23:27:02.203Z,67.76
2019-03-20T23:29:29.815Z,67.72
2019-03-20T23:31:57.413Z,67.68
2019-03-20T23:34:25.030Z,67.73
2019-03-20T23:36:52.620Z,67.75
2019-03-20T23:39:20.212Z,67.74
2019-03-20T23:41:47.811Z,67.78
2019-03-20T23:44:15.412Z,67.84
2019-03-20T23:46:43.028Z,67.86
2019-03-20T23:49:14.185Z,67.87
2019-03-20T23:51:41.780Z,67.93
2019-03-20T23:54:09.601Z,67.92
2019-03-20T23:56:37.365Z,67.96
2019-03-20T23:59:05.296Z,68.00
